sensor_id;sensor_type;location;lat;lon;timestamp;P1;durP1;ratioP1;P2;durP2;ratioP2
73980;SDS011;62348;51.412;5.436;2023-04-01T00:00:51;4.63;;;1.35;;
73980;SDS011;62348;51.412;5.436;2023-04-01T00:03:18;5.30;;;1.80;;
73980;SDS011;62348;51.412;5.436;2023-04-01T00:05:45;8.88;;;1.80;;
73980;SDS011;62348;51.412;5.436;2023-04-01T00:08:11;8.77;;;1.70;;
73980;SDS011;62348;51.412;5.436;2023-04-01T00:10:37;5.97;;;1.80;;
73980;SDS011;62348;51.412;5.436;2023-04-01T00:13:02;4.75;;;1.20;;
73980;SDS011;62348;51.412;5.436;2023-04-01T00:15:28;6.47;;;1.50;;
73980;SDS011;62348;51.412;5.436;2023-04-01T00:17:53;6.85;;;1.67;;
73980;SDS011;62348;51.412;5.436;2023-04-01T00:20:19;3.83;;;1.40;;
73980;SDS011;62348;51.412;5.436;2023-04-01T00:22:44;6.03;;;1.45;;
73980;SDS011;62348;51.412;5.436;2023-04-01T00:25:10;4.10;;;1.40;;
73980;SDS011;62348;51.412;5.436;2023-04-01T00:27:36;4.68;;;1.30;;
73980;SDS011;62348;51.412;5.436;2023-04-01T00:30:01;4.28;;;1.10;;
73980;SDS011;62348;51.412;5.436;2023-04-01T00:32:27;4.50;;;1.75;;
73980;SDS011;62348;51.412;5.436;2023-04-01T00:34:52;3.05;;;1.30;;
73980;SDS011;62348;51.412;5.436;2023-04-01T00:37:19;3.25;;;1.20;;
73980;SDS011;62348;51.412;5.436;2023-04-01T00:39:46;3.85;;;1.05;;
73980;SDS011;62348;51.412;5.436;2023-04-01T00:42:11;3.92;;;1.10;;
73980;SDS011;62348;51.412;5.436;2023-04-01T00:44:38;4.22;;;1.30;;
73980;SDS011;62348;51.412;5.436;2023-04-01T00:47:03;2.88;;;1.20;;
73980;SDS011;62348;51.412;5.436;2023-04-01T00:49:30;3.67;;;1.05;;
73980;SDS011;62348;51.412;5.436;2023-04-01T00:52:01;2.17;;;1.05;;
73980;SDS011;62348;51.412;5.436;2023-04-01T00:54:29;5.28;;;1.48;;
73980;SDS011;62348;51.412;5.436;2023-04-01T00:56:57;3.55;;;1.85;;
73980;SDS011;62348;51.412;5.436;2023-04-01T00:59:31;5.07;;;1.38;;
73980;SDS011;62348;51.412;5.436;2023-04-01T01:02:01;2.55;;;1.27;;
73980;SDS011;62348;51.412;5.436;2023-04-01T01:04:32;2.92;;;1.02;;
73980;SDS011;62348;51.412;5.436;2023-04-01T01:12:25;1.85;;;0.90;;
73980;SDS011;62348;51.412;5.436;2023-04-01T01:15:06;2.30;;;1.63;;
73980;SDS011;62348;51.412;5.436;2023-04-01T01:28:40;2.38;;;1.40;;
73980;SDS011;62348;51.412;5.436;2023-04-01T01:36:44;1.83;;;1.20;;
73980;SDS011;62348;51.412;5.436;2023-04-01T01:39:13;1.98;;;1.05;;
73980;SDS011;62348;51.412;5.436;2023-04-01T01:41:39;1.98;;;1.42;;
73980;SDS011;62348;51.412;5.436;2023-04-01T01:44:09;2.03;;;1.60;;
73980;SDS011;62348;51.412;5.436;2023-04-01T01:46:38;1.67;;;1.30;;
73980;SDS011;62348;51.412;5.436;2023-04-01T01:49:06;2.03;;;1.42;;
73980;SDS011;62348;51.412;5.436;2023-04-01T01:51:33;2.30;;;1.77;;
73980;SDS011;62348;51.412;5.436;2023-04-01T01:53:59;3.15;;;2.00;;
73980;SDS011;62348;51.412;5.436;2023-04-01T01:56:25;2.17;;;1.92;;
73980;SDS011;62348;51.412;5.436;2023-04-01T01:58:58;2.45;;;1.95;;
73980;SDS011;62348;51.412;5.436;2023-04-01T02:01:28;2.95;;;2.58;;
73980;SDS011;62348;51.412;5.436;2023-04-01T02:03:56;2.72;;;2.40;;
73980;SDS011;62348;51.412;5.436;2023-04-01T02:06:23;3.10;;;2.80;;
73980;SDS011;62348;51.412;5.436;2023-04-01T02:09:02;5.57;;;3.60;;
73980;SDS011;62348;51.412;5.436;2023-04-01T02:11:51;5.65;;;3.60;;
73980;SDS011;62348;51.412;5.436;2023-04-01T02:14:20;6.57;;;4.15;;
73980;SDS011;62348;51.412;5.436;2023-04-01T02:19:48;4.82;;;4.05;;
73980;SDS011;62348;51.412;5.436;2023-04-01T02:22:26;4.63;;;4.20;;
73980;SDS011;62348;51.412;5.436;2023-04-01T02:24:57;4.35;;;3.95;;
73980;SDS011;62348;51.412;5.436;2023-04-01T02:27:24;7.32;;;5.38;;
73980;SDS011;62348;51.412;5.436;2023-04-01T02:29:51;5.40;;;4.70;;
73980;SDS011;62348;51.412;5.436;2023-04-01T02:32:18;8.07;;;5.63;;
73980;SDS011;62348;51.412;5.436;2023-04-01T02:34:45;6.22;;;5.50;;
73980;SDS011;62348;51.412;5.436;2023-04-01T02:37:12;6.78;;;5.25;;
73980;SDS011;62348;51.412;5.436;2023-04-01T02:39:39;7.18;;;5.07;;
73980;SDS011;62348;51.412;5.436;2023-04-01T02:42:05;5.88;;;4.93;;
73980;SDS011;62348;51.412;5.436;2023-04-01T02:44:37;6.97;;;4.85;;
73980;SDS011;62348;51.412;5.436;2023-04-01T02:47:02;8.15;;;4.95;;
73980;SDS011;62348;51.412;5.436;2023-04-01T02:49:28;7.15;;;4.88;;
73980;SDS011;62348;51.412;5.436;2023-04-01T02:51:53;7.20;;;5.28;;
73980;SDS011;62348;51.412;5.436;2023-04-01T02:54:19;8.27;;;5.38;;
73980;SDS011;62348;51.412;5.436;2023-04-01T02:56:44;7.72;;;5.63;;
73980;SDS011;62348;51.412;5.436;2023-04-01T02:59:10;6.88;;;6.18;;
73980;SDS011;62348;51.412;5.436;2023-04-01T03:01:36;8.55;;;6.45;;
73980;SDS011;62348;51.412;5.436;2023-04-01T03:04:01;8.95;;;6.57;;
73980;SDS011;62348;51.412;5.436;2023-04-01T03:06:27;9.38;;;6.35;;
73980;SDS011;62348;51.412;5.436;2023-04-01T03:08:52;9.02;;;6.57;;
73980;SDS011;62348;51.412;5.436;2023-04-01T03:11:20;7.82;;;5.72;;
73980;SDS011;62348;51.412;5.436;2023-04-01T03:13:46;9.63;;;7.20;;
73980;SDS011;62348;51.412;5.436;2023-04-01T03:16:12;7.82;;;6.82;;
73980;SDS011;62348;51.412;5.436;2023-04-01T03:18:37;9.13;;;6.68;;
73980;SDS011;62348;51.412;5.436;2023-04-01T03:21:13;10.05;;;7.15;;
73980;SDS011;62348;51.412;5.436;2023-04-01T03:23:42;7.03;;;6.28;;
73980;SDS011;62348;51.412;5.436;2023-04-01T03:26:08;9.68;;;6.80;;
73980;SDS011;62348;51.412;5.436;2023-04-01T03:28:34;8.70;;;6.90;;
73980;SDS011;62348;51.412;5.436;2023-04-01T03:31:00;8.65;;;7.13;;
73980;SDS011;62348;51.412;5.436;2023-04-01T03:33:25;7.65;;;6.85;;
73980;SDS011;62348;51.412;5.436;2023-04-01T03:35:51;8.82;;;6.50;;
73980;SDS011;62348;51.412;5.436;2023-04-01T03:38:17;8.55;;;7.25;;
73980;SDS011;62348;51.412;5.436;2023-04-01T03:40:43;7.60;;;6.53;;
73980;SDS011;62348;51.412;5.436;2023-04-01T03:43:09;8.05;;;7.25;;
73980;SDS011;62348;51.412;5.436;2023-04-01T03:45:36;8.93;;;6.78;;
73980;SDS011;62348;51.412;5.436;2023-04-01T03:48:08;6.85;;;6.18;;
73980;SDS011;62348;51.412;5.436;2023-04-01T03:50:34;7.15;;;5.82;;
73980;SDS011;62348;51.412;5.436;2023-04-01T03:53:00;7.07;;;6.38;;
73980;SDS011;62348;51.412;5.436;2023-04-01T03:55:25;8.43;;;6.15;;
73980;SDS011;62348;51.412;5.436;2023-04-01T03:57:51;6.47;;;5.85;;
73980;SDS011;62348;51.412;5.436;2023-04-01T04:00:16;8.70;;;6.07;;
73980;SDS011;62348;51.412;5.436;2023-04-01T04:02:42;7.18;;;6.47;;
73980;SDS011;62348;51.412;5.436;2023-04-01T04:05:07;9.07;;;7.10;;
73980;SDS011;62348;51.412;5.436;2023-04-01T04:07:34;8.23;;;7.32;;
73980;SDS011;62348;51.412;5.436;2023-04-01T04:09:59;8.05;;;7.00;;
73980;SDS011;62348;51.412;5.436;2023-04-01T04:12:25;9.23;;;7.38;;
73980;SDS011;62348;51.412;5.436;2023-04-01T04:14:50;10.27;;;7.95;;
73980;SDS011;62348;51.412;5.436;2023-04-01T04:17:16;9.15;;;8.15;;
73980;SDS011;62348;51.412;5.436;2023-04-01T04:19:41;8.88;;;7.82;;
73980;SDS011;62348;51.412;5.436;2023-04-01T04:22:07;10.23;;;8.73;;
73980;SDS011;62348;51.412;5.436;2023-04-01T04:24:36;13.32;;;8.95;;
73980;SDS011;62348;51.412;5.436;2023-04-01T04:27:02;10.13;;;8.57;;
73980;SDS011;62348;51.412;5.436;2023-04-01T04:29:28;10.50;;;8.93;;
73980;SDS011;62348;51.412;5.436;2023-04-01T04:31:53;10.75;;;8.77;;
73980;SDS011;62348;51.412;5.436;2023-04-01T04:34:18;12.48;;;8.77;;
73980;SDS011;62348;51.412;5.436;2023-04-01T04:36:44;10.98;;;9.38;;
73980;SDS011;62348;51.412;5.436;2023-04-01T04:39:12;11.02;;;7.88;;
73980;SDS011;62348;51.412;5.436;2023-04-01T04:41:38;10.63;;;8.45;;
73980;SDS011;62348;51.412;5.436;2023-04-01T04:44:03;11.30;;;8.45;;
73980;SDS011;62348;51.412;5.436;2023-04-01T04:46:29;9.15;;;7.53;;
73980;SDS011;62348;51.412;5.436;2023-04-01T04:48:55;10.35;;;7.22;;
73980;SDS011;62348;51.412;5.436;2023-04-01T04:51:21;7.93;;;6.90;;
73980;SDS011;62348;51.412;5.436;2023-04-01T04:53:47;8.82;;;7.47;;
73980;SDS011;62348;51.412;5.436;2023-04-01T04:56:13;9.23;;;7.03;;
73980;SDS011;62348;51.412;5.436;2023-04-01T04:58:42;9.55;;;7.18;;
73980;SDS011;62348;51.412;5.436;2023-04-01T05:01:08;9.05;;;6.95;;
73980;SDS011;62348;51.412;5.436;2023-04-01T05:03:35;8.80;;;6.75;;
73980;SDS011;62348;51.412;5.436;2023-04-01T05:06:02;7.55;;;6.18;;
73980;SDS011;62348;51.412;5.436;2023-04-01T05:08:27;7.88;;;6.20;;
73980;SDS011;62348;51.412;5.436;2023-04-01T05:10:53;8.48;;;6.32;;
73980;SDS011;62348;51.412;5.436;2023-04-01T05:13:18;8.25;;;6.28;;
73980;SDS011;62348;51.412;5.436;2023-04-01T05:15:44;7.68;;;6.60;;
73980;SDS011;62348;51.412;5.436;2023-04-01T05:18:10;6.70;;;6.07;;
73980;SDS011;62348;51.412;5.436;2023-04-01T05:20:35;7.50;;;6.25;;
73980;SDS011;62348;51.412;5.436;2023-04-01T05:23:01;7.05;;;6.13;;
73980;SDS011;62348;51.412;5.436;2023-04-01T05:25:26;7.65;;;6.47;;
73980;SDS011;62348;51.412;5.436;2023-04-01T05:27:52;6.20;;;5.22;;
73980;SDS011;62348;51.412;5.436;2023-04-01T05:30:17;5.75;;;4.80;;
73980;SDS011;62348;51.412;5.436;2023-04-01T05:32:43;6.22;;;5.63;;
73980;SDS011;62348;51.412;5.436;2023-04-01T05:35:09;7.43;;;5.30;;
73980;SDS011;62348;51.412;5.436;2023-04-01T05:37:36;6.28;;;4.75;;
73980;SDS011;62348;51.412;5.436;2023-04-01T05:40:02;5.88;;;4.80;;
73980;SDS011;62348;51.412;5.436;2023-04-01T05:42:28;5.57;;;4.30;;
73980;SDS011;62348;51.412;5.436;2023-04-01T05:44:54;5.15;;;4.40;;
73980;SDS011;62348;51.412;5.436;2023-04-01T05:47:20;4.97;;;4.43;;
73980;SDS011;62348;51.412;5.436;2023-04-01T05:49:46;5.03;;;4.40;;
73980;SDS011;62348;51.412;5.436;2023-04-01T05:52:12;5.28;;;4.30;;
73980;SDS011;62348;51.412;5.436;2023-04-01T05:54:37;4.78;;;4.25;;
73980;SDS011;62348;51.412;5.436;2023-04-01T05:57:03;5.05;;;4.55;;
73980;SDS011;62348;51.412;5.436;2023-04-01T05:59:28;5.75;;;4.75;;
73980;SDS011;62348;51.412;5.436;2023-04-01T06:01:56;4.78;;;3.97;;
73980;SDS011;62348;51.412;5.436;2023-04-01T06:04:21;5.05;;;4.30;;
73980;SDS011;62348;51.412;5.436;2023-04-01T06:06:47;5.03;;;3.65;;
73980;SDS011;62348;51.412;5.436;2023-04-01T06:09:16;6.28;;;4.63;;
73980;SDS011;62348;51.412;5.436;2023-04-01T06:11:48;4.88;;;4.03;;
73980;SDS011;62348;51.412;5.436;2023-04-01T06:28:07;6.97;;;5.20;;
73980;SDS011;62348;51.412;5.436;2023-04-01T06:39:50;5.65;;;3.78;;
73980;SDS011;62348;51.412;5.436;2023-04-01T06:43:18;5.93;;;4.43;;
73980;SDS011;62348;51.412;5.436;2023-04-01T06:45:30;5.32;;;4.03;;
73980;SDS011;62348;51.412;5.436;2023-04-01T06:48:01;7.18;;;4.50;;
73980;SDS011;62348;51.412;5.436;2023-04-01T06:53:06;5.22;;;4.40;;
73980;SDS011;62348;51.412;5.436;2023-04-01T06:55:51;7.80;;;5.68;;
73980;SDS011;62348;51.412;5.436;2023-04-01T06:58:22;6.47;;;4.95;;
73980;SDS011;62348;51.412;5.436;2023-04-01T07:00:53;6.65;;;5.43;;
73980;SDS011;62348;51.412;5.436;2023-04-01T07:03:32;6.75;;;6.00;;
73980;SDS011;62348;51.412;5.436;2023-04-01T07:06:05;9.57;;;5.93;;
73980;SDS011;62348;51.412;5.436;2023-04-01T07:08:37;9.05;;;5.53;;
73980;SDS011;62348;51.412;5.436;2023-04-01T07:11:06;8.80;;;6.97;;
73980;SDS011;62348;51.412;5.436;2023-04-01T07:13:36;8.45;;;6.18;;
73980;SDS011;62348;51.412;5.436;2023-04-01T07:16:24;11.98;;;7.90;;
73980;SDS011;62348;51.412;5.436;2023-04-01T07:21:43;12.90;;;9.32;;
73980;SDS011;62348;51.412;5.436;2023-04-01T07:24:13;13.30;;;9.20;;
73980;SDS011;62348;51.412;5.436;2023-04-01T07:26:44;12.68;;;9.40;;
73980;SDS011;62348;51.412;5.436;2023-04-01T07:29:11;16.02;;;10.50;;
73980;SDS011;62348;51.412;5.436;2023-04-01T07:43:08;20.05;;;13.90;;
73980;SDS011;62348;51.412;5.436;2023-04-01T07:51:17;20.45;;;14.25;;
73980;SDS011;62348;51.412;5.436;2023-04-01T07:54:12;23.05;;;15.82;;
73980;SDS011;62348;51.412;5.436;2023-04-01T07:56:49;25.45;;;15.90;;
73980;SDS011;62348;51.412;5.436;2023-04-01T07:59:37;25.17;;;17.02;;
73980;SDS011;62348;51.412;5.436;2023-04-01T08:02:37;24.88;;;16.83;;
73980;SDS011;62348;51.412;5.436;2023-04-01T08:05:15;28.23;;;16.95;;
73980;SDS011;62348;51.412;5.436;2023-04-01T08:13:14;32.45;;;20.45;;
73980;SDS011;62348;51.412;5.436;2023-04-01T08:15:49;33.83;;;21.10;;
73980;SDS011;62348;51.412;5.436;2023-04-01T08:21:14;36.38;;;20.50;;
73980;SDS011;62348;51.412;5.436;2023-04-01T08:23:48;35.50;;;19.83;;
73980;SDS011;62348;51.412;5.436;2023-04-01T08:26:27;32.25;;;20.35;;
73980;SDS011;62348;51.412;5.436;2023-04-01T08:34:37;34.85;;;20.05;;
73980;SDS011;62348;51.412;5.436;2023-04-01T08:37:07;31.10;;;18.95;;
73980;SDS011;62348;51.412;5.436;2023-04-01T08:39:44;33.15;;;20.20;;
73980;SDS011;62348;51.412;5.436;2023-04-01T08:55:41;25.45;;;16.70;;
73980;SDS011;62348;51.412;5.436;2023-04-01T09:23:40;16.17;;;10.75;;
73980;SDS011;62348;51.412;5.436;2023-04-01T09:40:18;13.02;;;10.05;;
73980;SDS011;62348;51.412;5.436;2023-04-01T09:48:15;12.70;;;8.90;;
73980;SDS011;62348;51.412;5.436;2023-04-01T09:51:03;11.27;;;8.77;;
73980;SDS011;62348;51.412;5.436;2023-04-01T09:56:29;13.00;;;8.93;;
73980;SDS011;62348;51.412;5.436;2023-04-01T10:01:40;13.50;;;9.82;;
73980;SDS011;62348;51.412;5.436;2023-04-01T10:15:29;16.52;;;10.85;;
73980;SDS011;62348;51.412;5.436;2023-04-01T10:31:34;14.02;;;9.82;;
73980;SDS011;62348;51.412;5.436;2023-04-01T10:45:24;16.13;;;8.93;;
73980;SDS011;62348;51.412;5.436;2023-04-01T10:51:12;12.82;;;8.93;;
73980;SDS011;62348;51.412;5.436;2023-04-01T11:12:51;11.05;;;7.63;;
73980;SDS011;62348;51.412;5.436;2023-04-01T11:15:47;8.48;;;6.38;;
73980;SDS011;62348;51.412;5.436;2023-04-01T11:18:29;7.97;;;6.90;;
73980;SDS011;62348;51.412;5.436;2023-04-01T11:23:41;7.80;;;6.30;;
73980;SDS011;62348;51.412;5.436;2023-04-01T11:26:17;8.27;;;7.30;;
73980;SDS011;62348;51.412;5.436;2023-04-01T11:31:41;8.23;;;7.05;;
73980;SDS011;62348;51.412;5.436;2023-04-01T11:45:56;12.10;;;7.75;;
73980;SDS011;62348;51.412;5.436;2023-04-01T11:48:35;8.32;;;6.20;;
73980;SDS011;62348;51.412;5.436;2023-04-01T11:51:39;11.18;;;7.63;;
73980;SDS011;62348;51.412;5.436;2023-04-01T12:08:21;9.70;;;6.63;;
73980;SDS011;62348;51.412;5.436;2023-04-01T12:11:20;10.13;;;6.70;;
73980;SDS011;62348;51.412;5.436;2023-04-01T12:16:49;9.55;;;6.72;;
73980;SDS011;62348;51.412;5.436;2023-04-01T12:19:28;9.07;;;7.05;;
73980;SDS011;62348;51.412;5.436;2023-04-01T12:36:04;5.60;;;4.18;;
73980;SDS011;62348;51.412;5.436;2023-04-01T12:44:37;6.47;;;4.90;;
73980;SDS011;62348;51.412;5.436;2023-04-01T12:55:44;7.25;;;5.93;;
73980;SDS011;62348;51.412;5.436;2023-04-01T13:01:16;7.90;;;6.03;;
73980;SDS011;62348;51.412;5.436;2023-04-01T13:20:41;6.93;;;5.90;;
73980;SDS011;62348;51.412;5.436;2023-04-01T13:23:24;6.55;;;5.82;;
73980;SDS011;62348;51.412;5.436;2023-04-01T13:28:32;9.65;;;6.30;;
73980;SDS011;62348;51.412;5.436;2023-04-01T13:42:29;9.02;;;6.85;;
73980;SDS011;62348;51.412;5.436;2023-04-01T13:51:15;10.90;;;6.88;;
73980;SDS011;62348;51.412;5.436;2023-04-01T14:07:58;10.57;;;7.15;;
73980;SDS011;62348;51.412;5.436;2023-04-01T14:40:27;8.27;;;6.82;;
73980;SDS011;62348;51.412;5.436;2023-04-01T14:51:08;6.15;;;5.38;;
73980;SDS011;62348;51.412;5.436;2023-04-01T14:53:42;6.63;;;5.70;;
73980;SDS011;62348;51.412;5.436;2023-04-01T14:56:34;5.82;;;4.97;;
73980;SDS011;62348;51.412;5.436;2023-04-01T15:04:50;9.65;;;5.15;;
73980;SDS011;62348;51.412;5.436;2023-04-01T15:16:34;9.20;;;5.45;;
73980;SDS011;62348;51.412;5.436;2023-04-01T15:32:38;6.55;;;4.63;;
73980;SDS011;62348;51.412;5.436;2023-04-01T15:35:25;6.97;;;4.88;;
73980;SDS011;62348;51.412;5.436;2023-04-01T15:38:16;6.38;;;5.05;;
73980;SDS011;62348;51.412;5.436;2023-04-01T15:40:53;7.15;;;5.75;;
73980;SDS011;62348;51.412;5.436;2023-04-01T16:00:18;7.93;;;6.47;;
73980;SDS011;62348;51.412;5.436;2023-04-01T16:26:08;6.82;;;5.80;;
73980;SDS011;62348;51.412;5.436;2023-04-01T16:40:10;9.98;;;6.40;;
73980;SDS011;62348;51.412;5.436;2023-04-01T16:42:49;30.77;;;20.38;;
73980;SDS011;62348;51.412;5.436;2023-04-01T16:45:37;8.63;;;7.10;;
73980;SDS011;62348;51.412;5.436;2023-04-01T16:51:16;7.55;;;6.22;;
73980;SDS011;62348;51.412;5.436;2023-04-01T16:56:03;8.90;;;7.47;;
73980;SDS011;62348;51.412;5.436;2023-04-01T16:58:36;11.43;;;7.30;;
73980;SDS011;62348;51.412;5.436;2023-04-01T17:03:33;12.25;;;8.65;;
73980;SDS011;62348;51.412;5.436;2023-04-01T17:06:26;9.55;;;8.55;;
73980;SDS011;62348;51.412;5.436;2023-04-01T17:09:06;12.20;;;9.55;;
73980;SDS011;62348;51.412;5.436;2023-04-01T17:33:58;13.15;;;11.25;;
73980;SDS011;62348;51.412;5.436;2023-04-01T17:44:47;14.57;;;11.70;;
73980;SDS011;62348;51.412;5.436;2023-04-01T17:50:02;14.70;;;12.55;;
73980;SDS011;62348;51.412;5.436;2023-04-01T17:52:43;11.90;;;10.20;;
73980;SDS011;62348;51.412;5.436;2023-04-01T17:57:54;14.27;;;11.38;;
73980;SDS011;62348;51.412;5.436;2023-04-01T18:00:38;15.98;;;10.45;;
73980;SDS011;62348;51.412;5.436;2023-04-01T18:05:52;12.05;;;9.93;;
73980;SDS011;62348;51.412;5.436;2023-04-01T18:20:05;11.15;;;7.35;;
73980;SDS011;62348;51.412;5.436;2023-04-01T18:22:48;8.18;;;6.90;;
73980;SDS011;62348;51.412;5.436;2023-04-01T18:25:24;8.00;;;6.68;;
73980;SDS011;62348;51.412;5.436;2023-04-01T18:28:07;6.85;;;6.15;;
73980;SDS011;62348;51.412;5.436;2023-04-01T18:30:51;6.50;;;5.68;;
73980;SDS011;62348;51.412;5.436;2023-04-01T18:36:18;8.38;;;7.30;;
73980;SDS011;62348;51.412;5.436;2023-04-01T18:39:12;10.15;;;7.97;;
73980;SDS011;62348;51.412;5.436;2023-04-01T18:41:59;10.48;;;8.82;;
73980;SDS011;62348;51.412;5.436;2023-04-01T18:44:52;14.23;;;9.98;;
73980;SDS011;62348;51.412;5.436;2023-04-01T18:47:48;10.77;;;7.78;;
73980;SDS011;62348;51.412;5.436;2023-04-01T18:52:51;8.88;;;7.43;;
73980;SDS011;62348;51.412;5.436;2023-04-01T18:57:55;8.20;;;6.63;;
73980;SDS011;62348;51.412;5.436;2023-04-01T19:00:44;9.88;;;8.43;;
73980;SDS011;62348;51.412;5.436;2023-04-01T19:03:26;8.10;;;6.82;;
73980;SDS011;62348;51.412;5.436;2023-04-01T19:05:56;7.50;;;6.40;;
73980;SDS011;62348;51.412;5.436;2023-04-01T19:08:31;8.50;;;7.22;;
73980;SDS011;62348;51.412;5.436;2023-04-01T19:21:33;8.73;;;5.97;;
73980;SDS011;62348;51.412;5.436;2023-04-01T19:32:49;9.63;;;7.10;;
73980;SDS011;62348;51.412;5.436;2023-04-01T19:41:09;8.70;;;6.93;;
73980;SDS011;62348;51.412;5.436;2023-04-01T19:46:16;8.88;;;7.75;;
73980;SDS011;62348;51.412;5.436;2023-04-01T19:49:00;10.57;;;8.30;;
73980;SDS011;62348;51.412;5.436;2023-04-01T19:51:39;9.07;;;7.90;;
73980;SDS011;62348;51.412;5.436;2023-04-01T19:54:13;10.02;;;8.00;;
73980;SDS011;62348;51.412;5.436;2023-04-01T19:57:04;10.32;;;8.60;;
73980;SDS011;62348;51.412;5.436;2023-04-01T20:04:45;13.65;;;10.98;;
73980;SDS011;62348;51.412;5.436;2023-04-01T20:09:51;11.60;;;9.93;;
73980;SDS011;62348;51.412;5.436;2023-04-01T20:12:29;12.07;;;9.60;;
73980;SDS011;62348;51.412;5.436;2023-04-01T20:18:16;13.25;;;10.48;;
73980;SDS011;62348;51.412;5.436;2023-04-01T20:20:54;10.60;;;9.02;;
73980;SDS011;62348;51.412;5.436;2023-04-01T20:23:26;13.48;;;9.82;;
73980;SDS011;62348;51.412;5.436;2023-04-01T20:26:04;12.27;;;9.18;;
73980;SDS011;62348;51.412;5.436;2023-04-01T20:28:44;12.45;;;8.38;;
73980;SDS011;62348;51.412;5.436;2023-04-01T20:31:31;9.50;;;7.88;;
73980;SDS011;62348;51.412;5.436;2023-04-01T20:37:36;10.98;;;9.13;;
73980;SDS011;62348;51.412;5.436;2023-04-01T20:51:01;9.73;;;8.05;;
73980;SDS011;62348;51.412;5.436;2023-04-01T20:53:58;10.40;;;8.70;;
73980;SDS011;62348;51.412;5.436;2023-04-01T20:56:36;10.27;;;8.90;;
73980;SDS011;62348;51.412;5.436;2023-04-01T21:07:15;10.32;;;7.40;;
73980;SDS011;62348;51.412;5.436;2023-04-01T21:12:46;10.13;;;8.40;;
73980;SDS011;62348;51.412;5.436;2023-04-01T21:15:29;11.40;;;8.82;;
73980;SDS011;62348;51.412;5.436;2023-04-01T21:32:16;10.60;;;9.05;;
73980;SDS011;62348;51.412;5.436;2023-04-01T21:35:03;8.73;;;7.78;;
73980;SDS011;62348;51.412;5.436;2023-04-01T21:43:17;9.48;;;7.90;;
73980;SDS011;62348;51.412;5.436;2023-04-01T21:46:18;11.20;;;8.75;;
73980;SDS011;62348;51.412;5.436;2023-04-01T21:49:18;11.38;;;8.20;;
73980;SDS011;62348;51.412;5.436;2023-04-01T22:01:09;10.50;;;9.40;;
73980;SDS011;62348;51.412;5.436;2023-04-01T22:06:48;11.27;;;9.68;;
73980;SDS011;62348;51.412;5.436;2023-04-01T22:09:25;12.55;;;9.65;;
73980;SDS011;62348;51.412;5.436;2023-04-01T22:12:17;12.90;;;9.85;;
73980;SDS011;62348;51.412;5.436;2023-04-01T22:14:57;13.93;;;11.07;;
73980;SDS011;62348;51.412;5.436;2023-04-01T22:17:45;11.48;;;9.43;;
73980;SDS011;62348;51.412;5.436;2023-04-01T22:28:48;10.30;;;8.80;;
73980;SDS011;62348;51.412;5.436;2023-04-01T22:31:15;9.68;;;8.68;;
73980;SDS011;62348;51.412;5.436;2023-04-01T22:36:19;11.80;;;9.90;;
73980;SDS011;62348;51.412;5.436;2023-04-01T22:42:04;11.80;;;9.30;;
73980;SDS011;62348;51.412;5.436;2023-04-01T22:47:14;10.00;;;8.98;;
73980;SDS011;62348;51.412;5.436;2023-04-01T22:49:51;14.57;;;9.90;;
73980;SDS011;62348;51.412;5.436;2023-04-01T22:52:38;16.30;;;12.52;;
73980;SDS011;62348;51.412;5.436;2023-04-01T22:55:12;15.77;;;13.98;;
73980;SDS011;62348;51.412;5.436;2023-04-01T23:00:23;15.82;;;12.95;;
73980;SDS011;62348;51.412;5.436;2023-04-01T23:05:24;18.35;;;15.45;;
73980;SDS011;62348;51.412;5.436;2023-04-01T23:07:56;19.83;;;14.05;;
73980;SDS011;62348;51.412;5.436;2023-04-01T23:13:03;18.20;;;13.20;;
73980;SDS011;62348;51.412;5.436;2023-04-01T23:15:35;13.00;;;11.50;;
73980;SDS011;62348;51.412;5.436;2023-04-01T23:20:29;14.48;;;11.50;;
73980;SDS011;62348;51.412;5.436;2023-04-01T23:28:46;14.32;;;10.95;;
73980;SDS011;62348;51.412;5.436;2023-04-01T23:33:54;13.57;;;10.45;;
73980;SDS011;62348;51.412;5.436;2023-04-01T23:36:37;13.77;;;10.75;;
73980;SDS011;62348;51.412;5.436;2023-04-01T23:39:17;12.85;;;10.82;;
73980;SDS011;62348;51.412;5.436;2023-04-01T23:41:59;14.55;;;11.02;;
73980;SDS011;62348;51.412;5.436;2023-04-01T23:44:28;13.63;;;10.93;;
73980;SDS011;62348;51.412;5.436;2023-04-01T23:46:55;11.45;;;10.07;;
73980;SDS011;62348;51.412;5.436;2023-04-01T23:49:25;11.43;;;10.00;;
73980;SDS011;62348;51.412;5.436;2023-04-01T23:51:59;12.07;;;10.63;;
73980;SDS011;62348;51.412;5.436;2023-04-01T23:54:30;13.45;;;10.35;;
73980;SDS011;62348;51.412;5.436;2023-04-01T23:56:58;10.55;;;9.45;;
73980;SDS011;62348;51.412;5.436;2023-04-01T23:59:30;10.40;;;8.90;;
